Time;durP1;ratioP1;P1;durP2;ratioP2;P2;SDS_P1;SDS_P2;PMS_P1;PMS_P2;Temp;Humidity;BMP_temperature;BMP_pressure;BME280_temperature;BME280_humidity;BME280_pressure;Samples;Min_cycle;Max_cycle;Signal;HPM_P1;HPM_P2
2023/05/19 00:01:51;;;;;;;3.47;0.90;;;7.00;99.90;;;;;;5076700;28;20530;-81
2023/05/19 00:04:17;;;;;;;5.53;1.58;;;7.10;99.90;;;;;;5059041;28;20494;-82
2023/05/19 00:06:47;;;;;;;4.95;1.00;;;6.90;99.90;;;;;;5059182;28;20036;-84
2023/05/19 00:09:12;;;;;;;4.28;0.90;;;6.90;99.90;;;;;;5056582;28;20078;-83
2023/05/19 00:11:39;;;;;;;3.38;1.10;;;6.90;99.90;;;;;;5073180;28;20075;-84
2023/05/19 00:14:07;;;;;;;1.88;0.80;;;6.90;99.90;;;;;;5073113;28;20037;-84
2023/05/19 00:16:33;;;;;;;3.45;0.80;;;6.90;99.90;;;;;;5068456;28;20052;-83
2023/05/19 00:19:00;;;;;;;2.05;0.70;;;6.90;99.90;;;;;;5063044;28;20185;-86
2023/05/19 00:21:27;;;;;;;2.75;0.90;;;6.90;99.90;;;;;;5075624;28;20044;-85
2023/05/19 00:23:53;;;;;;;4.00;0.70;;;7.20;99.90;;;;;;5073048;28;20055;-82
2023/05/19 00:26:21;;;;;;;4.15;0.70;;;7.10;99.90;;;;;;5055153;28;20413;-85
2023/05/19 00:28:47;;;;;;;3.03;0.80;;;7.10;99.90;;;;;;5072933;28;20068;-83
2023/05/19 00:31:12;;;;;;;3.05;0.70;;;6.90;99.90;;;;;;5073544;28;20497;-85
2023/05/19 00:33:38;;;;;;;3.03;1.00;;;7.10;99.90;;;;;;5055731;28;20044;-85
2023/05/19 00:36:04;;;;;;;2.33;0.60;;;7.00;99.90;;;;;;5072926;28;20443;-83
2023/05/19 00:38:31;;;;;;;3.25;0.95;;;7.00;99.90;;;;;;5072581;28;20067;-82
2023/05/19 00:40:58;;;;;;;5.38;0.75;;;7.50;99.90;;;;;;5073822;28;20048;-85
2023/05/19 00:43:23;;;;;;;2.40;0.73;;;7.10;99.90;;;;;;5072672;28;20381;-83
2023/05/19 00:45:50;;;;;;;2.20;0.73;;;7.10;99.90;;;;;;5072599;28;20102;-83
2023/05/19 00:48:15;;;;;;;2.03;0.88;;;7.00;99.90;;;;;;5074519;28;20037;-82
2023/05/19 00:50:41;;;;;;;2.25;0.80;;;7.20;99.90;;;;;;5072747;28;20160;-85
2023/05/19 00:53:07;;;;;;;3.28;0.85;;;7.20;99.90;;;;;;5077992;28;20028;-82
2023/05/19 00:55:36;;;;;;;2.55;0.95;;;7.50;99.90;;;;;;5092750;28;20052;-84
2023/05/19 00:58:03;;;;;;;5.85;1.02;;;7.10;99.90;;;;;;5090890;28;20044;-86
2023/05/19 01:00:29;;;;;;;4.18;0.80;;;7.60;99.90;;;;;;5092045;28;20051;-85
2023/05/19 01:02:55;;;;;;;4.07;0.80;;;7.40;99.90;;;;;;5092724;28;20097;-83
2023/05/19 01:05:21;;;;;;;2.97;0.77;;;6.80;99.90;;;;;;5093401;28;20051;-88
2023/05/19 01:07:52;;;;;;;2.88;0.60;;;6.80;99.90;;;;;;5095949;28;20114;-83
2023/05/19 01:10:18;;;;;;;1.65;0.50;;;6.80;99.90;;;;;;5080055;28;20040;-82
2023/05/19 01:12:45;;;;;;;1.77;0.70;;;6.80;99.90;;;;;;5058639;28;20049;-82
2023/05/19 01:15:11;;;;;;;3.17;0.80;;;6.80;99.90;;;;;;5076546;28;20044;-84
2023/05/19 01:18:06;;;;;;;3.78;1.73;;;7.00;99.90;;;;;;5076260;28;20036;-83
2023/05/19 01:20:47;;;;;;;3.17;0.85;;;6.80;99.90;;;;;;5063841;28;20508;-85
2023/05/19 01:23:22;;;;;;;2.42;0.80;;;6.80;99.90;;;;;;5058666;28;20061;-87
2023/05/19 01:26:24;;;;;;;3.03;0.60;;;7.20;99.90;;;;;;5079171;28;20044;-83
2023/05/19 01:29:03;;;;;;;1.38;0.77;;;6.80;99.90;;;;;;5079052;28;20080;-86
2023/05/19 01:31:29;;;;;;;2.55;0.65;;;6.80;99.90;;;;;;5087629;28;20127;-85
2023/05/19 01:33:56;;;;;;;1.55;0.80;;;6.80;99.90;;;;;;5096944;28;20055;-86
2023/05/19 01:36:24;;;;;;;1.73;0.75;;;6.80;99.90;;;;;;5095645;28;20051;-85
2023/05/19 01:38:52;;;;;;;2.22;0.73;;;6.70;99.90;;;;;;5095284;28;20125;-87
2023/05/19 01:41:20;;;;;;;2.30;0.63;;;6.70;99.90;;;;;;5082310;28;20040;-86
2023/05/19 01:43:47;;;;;;;1.63;0.50;;;6.80;99.90;;;;;;5075901;28;20049;-85
2023/05/19 01:46:13;;;;;;;6.15;0.80;;;7.40;99.90;;;;;;5057809;28;20101;-87
2023/05/19 01:48:40;;;;;;;4.85;0.85;;;6.80;99.90;;;;;;5061364;28;20051;-87
2023/05/19 01:51:06;;;;;;;2.70;0.85;;;7.00;99.90;;;;;;5075142;28;20036;-88
2023/05/19 01:53:31;;;;;;;4.30;0.70;;;6.70;99.90;;;;;;5077509;28;20399;-87
2023/05/19 01:55:58;;;;;;;2.55;0.70;;;6.80;99.90;;;;;;5096079;28;20172;-84
2023/05/19 01:58:45;;;;;;;3.25;0.93;;;6.90;99.90;;;;;;5077579;28;20048;-85
2023/05/19 02:01:37;;;;;;;2.97;0.70;;;6.70;99.90;;;;;;5094127;28;20154;-88
2023/05/19 02:04:14;;;;;;;3.28;0.88;;;6.70;99.90;;;;;;5094903;28;20040;-85
2023/05/19 02:06:53;;;;;;;3.13;0.80;;;6.70;99.90;;;;;;5095716;28;20044;-83
2023/05/19 02:09:27;;;;;;;4.32;0.68;;;6.80;99.90;;;;;;5086180;28;20048;-88
2023/05/19 02:12:04;;;;;;;3.28;0.90;;;6.80;99.90;;;;;;5076425;28;20447;-87
2023/05/19 02:14:38;;;;;;;3.47;0.80;;;6.70;99.90;;;;;;5087853;28;20384;-87
2023/05/19 02:17:04;;;;;;;5.20;0.90;;;7.00;99.90;;;;;;5094578;28;20055;-86
2023/05/19 02:19:32;;;;;;;2.33;0.60;;;6.80;99.90;;;;;;5076911;28;20083;-87
2023/05/19 02:21:58;;;;;;;4.80;0.77;;;7.00;99.90;;;;;;5095193;28;20089;-87
2023/05/19 02:24:24;;;;;;;6.50;0.88;;;6.80;99.90;;;;;;5081733;28;20049;-87
2023/05/19 02:26:51;;;;;;;1.83;0.90;;;6.80;99.90;;;;;;5074885;28;20045;-84
2023/05/19 02:29:17;;;;;;;4.78;0.90;;;6.80;99.90;;;;;;5075036;28;20488;-87
2023/05/19 02:31:43;;;;;;;5.22;0.90;;;6.80;99.90;;;;;;5075037;28;20044;-86
2023/05/19 02:34:09;;;;;;;3.10;0.70;;;6.80;99.90;;;;;;5076051;28;20051;-87
2023/05/19 02:36:39;;;;;;;3.53;1.00;;;6.60;99.90;;;;;;5079167;28;20056;-86
2023/05/19 02:39:05;;;;;;;3.80;0.77;;;6.80;99.90;;;;;;5074568;28;20067;-85
2023/05/19 02:41:31;;;;;;;3.00;0.70;;;6.80;99.90;;;;;;5075409;28;20408;-87
2023/05/19 02:43:57;;;;;;;2.35;0.52;;;6.80;99.90;;;;;;5093339;28;20055;-85
2023/05/19 02:46:23;;;;;;;2.88;0.77;;;6.80;99.90;;;;;;5094888;28;20048;-84
2023/05/19 02:48:49;;;;;;;1.90;0.60;;;6.80;99.90;;;;;;5095046;28;20044;-82
2023/05/19 02:51:15;;;;;;;2.85;0.60;;;7.20;99.90;;;;;;5095001;28;20044;-80
2023/05/19 02:53:41;;;;;;;3.17;0.70;;;6.70;99.90;;;;;;5094992;28;20097;-81
2023/05/19 02:56:07;;;;;;;2.83;1.05;;;7.30;99.90;;;;;;5073972;28;20043;-86
2023/05/19 02:58:32;;;;;;;2.90;0.80;;;7.50;99.90;;;;;;5094796;28;20564;-85
2023/05/19 03:00:58;;;;;;;3.78;1.23;;;6.80;99.90;;;;;;5095278;28;20102;-87
2023/05/19 03:03:24;;;;;;;6.88;1.15;;;7.30;99.90;;;;;;5076763;28;20075;-87
2023/05/19 03:05:50;;;;;;;3.22;1.02;;;7.10;99.90;;;;;;5088673;28;20123;-86
2023/05/19 03:08:16;;;;;;;4.30;0.82;;;7.50;99.90;;;;;;5074238;28;20083;-85
2023/05/19 03:10:41;;;;;;;2.42;1.05;;;6.90;99.90;;;;;;5074289;28;20044;-86
2023/05/19 03:13:07;;;;;;;3.10;0.88;;;6.80;99.90;;;;;;5093296;28;20384;-88
2023/05/19 03:15:33;;;;;;;2.92;1.25;;;6.80;99.90;;;;;;5084630;28;20048;-87
2023/05/19 03:17:58;;;;;;;4.15;0.98;;;6.80;99.90;;;;;;5075047;28;20447;-87
2023/05/19 03:20:24;;;;;;;1.15;0.70;;;6.80;99.90;;;;;;5074420;28;20043;-86
2023/05/19 03:22:50;;;;;;;2.00;0.80;;;6.80;99.90;;;;;;5074518;28;20408;-85
2023/05/19 03:25:16;;;;;;;4.13;0.82;;;6.70;99.90;;;;;;5074183;28;20040;-86
2023/05/19 03:27:42;;;;;;;2.15;0.80;;;7.10;99.90;;;;;;5075178;28;20047;-83
2023/05/19 03:30:08;;;;;;;2.50;0.88;;;7.00;99.90;;;;;;5082183;28;20036;-85
2023/05/19 03:32:36;;;;;;;5.78;1.10;;;6.70;99.90;;;;;;5095898;28;20123;-83
2023/05/19 03:35:04;;;;;;;3.80;0.93;;;6.70;99.90;;;;;;5098129;28;20047;-82
2023/05/19 03:37:30;;;;;;;4.63;1.00;;;6.70;99.90;;;;;;5094880;28;20056;-83
2023/05/19 03:39:56;;;;;;;2.85;0.85;;;6.90;99.90;;;;;;5075809;28;20136;-83
2023/05/19 03:42:22;;;;;;;2.00;0.75;;;7.00;99.90;;;;;;5074623;28;20044;-83
2023/05/19 03:44:47;;;;;;;1.90;0.55;;;6.70;99.90;;;;;;5075262;28;20047;-83
2023/05/19 03:47:13;;;;;;;1.85;0.70;;;6.70;99.90;;;;;;5074499;28;20044;-82
2023/05/19 03:49:38;;;;;;;1.52;0.70;;;6.80;99.90;;;;;;5071895;28;20480;-83
2023/05/19 03:52:04;;;;;;;1.33;0.65;;;7.10;99.90;;;;;;5093925;28;20313;-82
2023/05/19 03:54:30;;;;;;;2.65;0.80;;;6.60;99.90;;;;;;5093702;28;20047;-81
2023/05/19 03:56:56;;;;;;;2.50;0.70;;;6.60;99.90;;;;;;5093783;28;20032;-81
2023/05/19 03:59:22;;;;;;;2.42;0.60;;;6.60;99.90;;;;;;5087942;28;20068;-81
2023/05/19 04:01:48;;;;;;;2.78;0.60;;;6.60;99.90;;;;;;5073658;28;20047;-82
2023/05/19 04:04:13;;;;;;;2.95;0.70;;;6.60;99.90;;;;;;5073250;28;20041;-81
2023/05/19 04:06:39;;;;;;;2.58;0.90;;;6.70;99.90;;;;;;5073242;28;20174;-80
2023/05/19 04:09:11;;;;;;;1.80;0.80;;;6.70;99.90;;;;;;5055136;28;20132;-83
2023/05/19 04:11:38;;;;;;;3.97;1.15;;;7.30;99.90;;;;;;5081998;28;20044;-81
2023/05/19 04:14:04;;;;;;;1.27;0.60;;;6.70;99.90;;;;;;5093095;28;20178;-81
2023/05/19 04:16:30;;;;;;;2.70;0.80;;;6.70;99.90;;;;;;5093324;28;20040;-81
2023/05/19 04:18:56;;;;;;;2.83;0.70;;;7.40;99.90;;;;;;5093435;28;20067;-82
2023/05/19 04:21:21;;;;;;;2.97;0.60;;;7.30;99.90;;;;;;5089006;28;20392;-81
2023/05/19 04:23:47;;;;;;;2.08;0.80;;;6.90;99.90;;;;;;5092833;28;20065;-81
2023/05/19 04:26:16;;;;;;;0.75;0.65;;;7.70;99.90;;;;;;5093219;28;20036;-80
2023/05/19 04:28:43;;;;;;;1.20;0.70;;;6.90;99.90;;;;;;5074809;28;20043;-81
2023/05/19 04:31:09;;;;;;;1.27;0.70;;;7.30;99.90;;;;;;5073095;28;20476;-81
2023/05/19 04:33:36;;;;;;;3.38;1.00;;;7.10;99.90;;;;;;5092778;28;20460;-81
2023/05/19 04:36:07;;;;;;;2.15;0.60;;;7.10;99.90;;;;;;5086433;28;20040;-81
2023/05/19 04:38:33;;;;;;;1.58;0.70;;;7.10;99.90;;;;;;5072590;28;20488;-81
2023/05/19 04:41:00;;;;;;;4.55;1.23;;;7.20;99.90;;;;;;5071879;28;20052;-81
2023/05/19 04:43:27;;;;;;;1.50;0.60;;;7.30;99.90;;;;;;5073518;28;20048;-81
2023/05/19 04:45:53;;;;;;;3.78;1.23;;;8.20;99.90;;;;;;5072844;28;20102;-81
2023/05/19 04:48:20;;;;;;;3.80;0.80;;;7.90;99.90;;;;;;5072476;28;20499;-81
2023/05/19 04:50:47;;;;;;;6.95;1.42;;;8.00;99.90;;;;;;5074095;28;20032;-81
2023/05/19 04:53:14;;;;;;;4.55;1.10;;;7.50;99.90;;;;;;5055531;28;20041;-82
2023/05/19 04:55:39;;;;;;;2.92;0.80;;;7.70;99.90;;;;;;5071443;28;20136;-81
2023/05/19 04:58:05;;;;;;;1.40;0.98;;;7.70;99.90;;;;;;5092478;28;20032;-81
2023/05/19 05:00:34;;;;;;;2.10;0.82;;;7.90;99.90;;;;;;5092727;28;20118;-80
2023/05/19 05:03:03;;;;;;;4.00;1.30;;;8.00;99.90;;;;;;5073963;28;20035;-81
2023/05/19 05:05:29;;;;;;;2.75;0.90;;;8.00;99.90;;;;;;5073114;28;20052;-80
2023/05/19 05:07:56;;;;;;;1.10;0.65;;;8.40;99.90;;;;;;5074129;28;20561;-80
2023/05/19 05:10:22;;;;;;;7.90;1.20;;;8.20;99.90;;;;;;5092243;28;20048;-81
2023/05/19 05:12:48;;;;;;;8.00;1.75;;;8.40;99.90;;;;;;5074593;28;20044;-81
2023/05/19 05:15:14;;;;;;;4.38;1.67;;;8.50;99.90;;;;;;5072580;28;20055;-82
2023/05/19 05:17:40;;;;;;;3.25;1.00;;;8.70;99.90;;;;;;5091929;28;20082;-81
2023/05/19 05:20:06;;;;;;;4.05;1.40;;;8.80;99.90;;;;;;5092468;28;20123;-81
2023/05/19 05:22:32;;;;;;;6.70;1.90;;;8.90;99.90;;;;;;5078517;28;20036;-80
2023/05/19 05:24:58;;;;;;;2.72;1.60;;;9.00;99.90;;;;;;5081145;28;20079;-81
2023/05/19 05:27:24;;;;;;;8.30;2.22;;;9.20;99.90;;;;;;5072307;28;20064;-81
2023/05/19 05:29:50;;;;;;;5.85;2.10;;;9.30;99.90;;;;;;5072486;28;20033;-81
2023/05/19 05:32:16;;;;;;;7.90;1.92;;;9.40;99.90;;;;;;5091167;28;20047;-82
2023/05/19 05:34:42;;;;;;;4.22;1.60;;;9.70;99.90;;;;;;5092176;28;20075;-82
2023/05/19 05:37:07;;;;;;;7.13;3.00;;;9.80;99.90;;;;;;5090196;28;20455;-81
2023/05/19 05:39:33;;;;;;;6.90;2.50;;;10.10;99.90;;;;;;5092107;28;20052;-81
2023/05/19 05:41:59;;;;;;;5.63;2.17;;;9.90;99.90;;;;;;5074261;28;20158;-81
2023/05/19 05:44:25;;;;;;;3.80;2.15;;;10.00;99.90;;;;;;5092586;28;20043;-81
2023/05/19 05:46:51;;;;;;;3.42;1.50;;;10.30;99.90;;;;;;5074780;28;20048;-83
2023/05/19 05:49:17;;;;;;;5.15;2.22;;;10.30;99.90;;;;;;5072208;28;20079;-82
2023/05/19 05:51:43;;;;;;;4.47;2.03;;;10.40;99.90;;;;;;5073056;28;20133;-83
2023/05/19 05:54:11;;;;;;;8.63;2.53;;;10.60;99.90;;;;;;5075568;28;20045;-83
2023/05/19 05:56:37;;;;;;;4.75;2.50;;;10.70;99.90;;;;;;5076822;28;20079;-82
2023/05/19 05:59:03;;;;;;;7.07;2.05;;;10.80;99.90;;;;;;5051978;28;20448;-82
2023/05/19 06:01:32;;;;;;;3.78;2.30;;;10.90;99.90;;;;;;5095831;28;20083;-83
2023/05/19 06:03:57;;;;;;;4.43;1.65;;;11.00;99.90;;;;;;5095893;28;20040;-84
2023/05/19 06:06:23;;;;;;;3.38;2.10;;;11.30;99.90;;;;;;5095739;28;20070;-82
2023/05/19 06:08:48;;;;;;;9.05;2.50;;;11.20;99.90;;;;;;5077271;28;20071;-84
2023/05/19 06:11:14;;;;;;;5.53;2.50;;;11.30;99.90;;;;;;5075623;28;20048;-85
2023/05/19 06:13:40;;;;;;;8.63;2.83;;;11.50;99.90;;;;;;5085249;28;20105;-83
2023/05/19 06:16:06;;;;;;;6.15;2.45;;;11.60;99.90;;;;;;5095747;28;20052;-86
2023/05/19 06:18:31;;;;;;;5.13;2.03;;;11.70;99.90;;;;;;5093615;28;20047;-83
2023/05/19 06:20:57;;;;;;;3.83;1.80;;;11.70;99.90;;;;;;5095978;28;20506;-83
2023/05/19 06:23:24;;;;;;;3.80;1.58;;;11.90;99.90;;;;;;5095725;28;20404;-83
2023/05/19 06:25:49;;;;;;;5.07;2.03;;;12.00;99.90;;;;;;5077547;28;20043;-85
2023/05/19 06:28:15;;;;;;;4.85;1.80;;;12.10;99.90;;;;;;5074658;28;20040;-84
2023/05/19 06:30:41;;;;;;;7.57;2.20;;;12.20;99.90;;;;;;5095127;28;20104;-84
2023/05/19 06:33:07;;;;;;;3.97;1.95;;;12.30;99.90;;;;;;5077554;28;20177;-83
2023/05/19 06:35:33;;;;;;;4.10;1.60;;;12.30;99.90;;;;;;5095616;28;20036;-84
2023/05/19 06:37:58;;;;;;;5.07;2.05;;;12.40;99.90;;;;;;5095020;28;20040;-85
2023/05/19 06:40:24;;;;;;;4.95;2.05;;;12.60;99.90;;;;;;5080368;28;20066;-85
2023/05/19 06:42:50;;;;;;;8.95;2.35;;;12.60;99.90;;;;;;5086758;28;20070;-85
2023/05/19 06:45:15;;;;;;;8.35;2.78;;;12.80;99.90;;;;;;5076843;28;20055;-83
2023/05/19 06:47:41;;;;;;;7.20;2.30;;;12.90;99.90;;;;;;5087956;28;20097;-83
2023/05/19 06:50:08;;;;;;;3.88;1.63;;;12.90;99.90;;;;;;5056639;28;20063;-84
2023/05/19 06:52:34;;;;;;;6.80;2.08;;;13.00;99.90;;;;;;5074763;28;20102;-83
2023/05/19 06:55:00;;;;;;;6.30;1.70;;;13.10;99.90;;;;;;5074659;28;20044;-81
2023/05/19 06:57:25;;;;;;;6.05;2.92;;;13.20;99.90;;;;;;5074704;28;20036;-84
2023/05/19 06:59:51;;;;;;;4.55;1.63;;;13.30;99.90;;;;;;5075885;28;20080;-87
2023/05/19 07:02:17;;;;;;;5.88;1.63;;;13.40;99.90;;;;;;5068298;28;20067;-84
2023/05/19 07:04:42;;;;;;;5.88;1.98;;;13.40;99.90;;;;;;5094418;28;20123;-81
2023/05/19 07:07:08;;;;;;;6.65;2.08;;;13.60;99.90;;;;;;5089531;28;20032;-84
2023/05/19 07:09:34;;;;;;;5.68;1.38;;;13.70;99.90;;;;;;5063976;28;20170;-83
2023/05/19 07:12:00;;;;;;;7.90;1.65;;;13.80;99.90;;;;;;5074948;28;20047;-83
2023/05/19 07:14:26;;;;;;;3.72;1.80;;;13.90;99.90;;;;;;5074798;28;20052;-83
2023/05/19 07:16:52;;;;;;;5.70;1.92;;;13.80;99.90;;;;;;5075083;28;20040;-82
2023/05/19 07:19:18;;;;;;;5.60;1.65;;;13.80;99.90;;;;;;5076625;28;20493;-82
2023/05/19 07:21:47;;;;;;;3.63;1.30;;;14.00;99.90;;;;;;5057639;28;20049;-82
2023/05/19 07:24:12;;;;;;;5.95;1.50;;;14.10;99.90;;;;;;5056672;28;20082;-84
2023/05/19 07:26:39;;;;;;;6.72;1.20;;;14.10;99.90;;;;;;5056930;28;20477;-85
2023/05/19 07:29:05;;;;;;;2.13;1.13;;;14.30;99.90;;;;;;5073952;28;20066;-85
2023/05/19 07:31:30;;;;;;;3.50;1.23;;;14.30;99.90;;;;;;5073866;28;20052;-83
2023/05/19 07:33:57;;;;;;;5.57;1.52;;;14.40;99.90;;;;;;5074025;28;20051;-83
2023/05/19 07:36:23;;;;;;;3.80;1.30;;;14.50;99.90;;;;;;5090797;28;20400;-84
2023/05/19 07:38:48;;;;;;;2.85;1.10;;;14.60;99.90;;;;;;5094108;28;20051;-83
2023/05/19 07:41:14;;;;;;;3.80;1.17;;;14.90;99.90;;;;;;5093659;28;20135;-83
2023/05/19 07:43:40;;;;;;;5.38;1.50;;;14.90;99.90;;;;;;5092186;28;20048;-83
2023/05/19 07:46:06;;;;;;;3.17;1.27;;;15.00;99.90;;;;;;5078250;28;20035;-83
2023/05/19 07:48:31;;;;;;;7.00;1.20;;;15.20;99.90;;;;;;5064473;28;20044;-83
2023/05/19 07:50:57;;;;;;;5.05;1.35;;;15.30;99.90;;;;;;5039233;28;20048;-83
2023/05/19 07:53:23;;;;;;;3.35;1.60;;;15.40;99.90;;;;;;5055692;28;20044;-83
2023/05/19 07:55:49;;;;;;;4.28;1.50;;;15.40;99.90;;;;;;5073618;28;20374;-83
2023/05/19 07:58:14;;;;;;;6.32;1.60;;;15.50;99.90;;;;;;5055341;28;20082;-83
2023/05/19 08:00:42;;;;;;;3.08;1.25;;;15.50;99.90;;;;;;5055453;28;20048;-84
2023/05/19 08:03:08;;;;;;;3.97;1.75;;;15.70;99.90;;;;;;5078738;28;20038;-85
2023/05/19 08:05:35;;;;;;;7.18;1.40;;;15.80;99.90;;;;;;5093383;28;20036;-84
2023/05/19 08:08:01;;;;;;;6.13;2.03;;;15.90;99.90;;;;;;5093374;28;20047;-84
2023/05/19 08:10:27;;;;;;;6.22;1.50;;;16.00;99.90;;;;;;5093787;28;20425;-83
2023/05/19 08:12:53;;;;;;;5.65;1.38;;;16.00;99.90;;;;;;5093401;28;20179;-83
2023/05/19 08:15:19;;;;;;;6.38;1.15;;;16.20;99.90;;;;;;5092516;28;20036;-83
2023/05/19 08:17:45;;;;;;;2.97;1.10;;;16.20;99.90;;;;;;5093139;28;20048;-83
2023/05/19 08:20:11;;;;;;;6.00;1.73;;;16.30;99.90;;;;;;5093392;28;20040;-82
2023/05/19 08:22:37;;;;;;;7.85;1.00;;;16.50;99.90;;;;;;5071504;28;20044;-83
2023/05/19 08:25:04;;;;;;;3.45;0.90;;;16.40;99.90;;;;;;5073104;28;20082;-83
2023/05/19 08:27:30;;;;;;;3.28;0.73;;;16.40;99.90;;;;;;5054946;28;20052;-84
2023/05/19 08:29:56;;;;;;;2.53;0.90;;;16.60;99.90;;;;;;5054164;28;20102;-84
2023/05/19 08:32:22;;;;;;;5.28;1.05;;;16.70;99.90;;;;;;5054804;28;20045;-83
2023/05/19 08:34:48;;;;;;;4.28;0.90;;;16.80;99.90;;;;;;5073694;28;20033;-83
2023/05/19 08:37:14;;;;;;;3.13;1.23;;;17.00;99.90;;;;;;5092929;28;20438;-87
2023/05/19 08:39:40;;;;;;;3.97;1.20;;;17.00;99.90;;;;;;5092861;28;20052;-86
2023/05/19 08:42:08;;;;;;;2.83;1.15;;;17.10;99.90;;;;;;5073368;28;20074;-86
2023/05/19 08:44:38;;;;;;;6.22;1.33;;;17.20;99.90;;;;;;5072622;28;20500;-86
2023/05/19 08:47:06;;;;;;;4.18;1.23;;;17.30;99.90;;;;;;5072545;28;20056;-85
2023/05/19 08:49:40;;;;;;;3.40;1.10;;;17.20;99.90;;;;;;5072841;28;20048;-87
2023/05/19 08:52:31;;;;;;;4.32;1.02;;;17.30;99.90;;;;;;5072750;28;20045;-87
2023/05/19 08:55:06;;;;;;;5.18;1.40;;;17.30;99.90;;;;;;5072800;28;20040;-88
2023/05/19 08:57:33;;;;;;;6.72;1.90;;;17.20;99.90;;;;;;5072367;28;20040;-84
2023/05/19 08:59:59;;;;;;;4.93;1.65;;;17.50;99.90;;;;;;5054743;28;20064;-87
2023/05/19 09:02:26;;;;;;;4.18;1.58;;;17.20;99.20;;;;;;5055858;28;20045;-86
2023/05/19 09:04:52;;;;;;;4.60;1.35;;;17.40;99.90;;;;;;5072516;28;20048;-87
2023/05/19 09:07:20;;;;;;;3.53;1.63;;;17.40;99.70;;;;;;5054266;28;20049;-87
2023/05/19 09:09:46;;;;;;;3.28;0.90;;;17.50;99.80;;;;;;5072565;28;20044;-84
2023/05/19 09:12:13;;;;;;;3.78;0.93;;;17.70;99.90;;;;;;5072390;28;20252;-88
2023/05/19 09:14:39;;;;;;;5.32;1.02;;;17.90;99.90;;;;;;5072190;28;20048;-87
2023/05/19 09:17:05;;;;;;;5.20;1.10;;;18.00;99.90;;;;;;5054708;28;20064;-86
2023/05/19 09:19:31;;;;;;;4.18;1.02;;;18.00;98.80;;;;;;5072495;28;20048;-84
2023/05/19 09:21:59;;;;;;;8.27;1.05;;;18.10;98.70;;;;;;5075950;28;20165;-84
2023/05/19 09:24:25;;;;;;;6.50;1.10;;;18.10;97.60;;;;;;5074858;28;20091;-85
2023/05/19 09:26:55;;;;;;;4.05;1.15;;;18.10;97.10;;;;;;5093928;28;20121;-86
2023/05/19 09:29:21;;;;;;;5.50;1.20;;;18.10;98.40;;;;;;5096312;28;20044;-86
2023/05/19 09:31:51;;;;;;;4.55;1.00;;;18.20;97.80;;;;;;5096618;28;20051;-84
2023/05/19 09:34:17;;;;;;;3.05;0.90;;;18.00;97.40;;;;;;5089055;28;20045;-86
2023/05/19 09:36:45;;;;;;;5.43;1.15;;;18.00;97.50;;;;;;5058011;28;20044;-85
2023/05/19 09:39:18;;;;;;;7.35;1.65;;;18.00;95.20;;;;;;5076040;28;20082;-83
2023/05/19 09:41:44;;;;;;;3.58;1.00;;;17.90;96.40;;;;;;5077332;28;20136;-85
2023/05/19 09:44:30;;;;;;;4.22;1.02;;;18.10;97.40;;;;;;5096063;28;20488;-86
2023/05/19 09:46:57;;;;;;;5.35;1.25;;;18.00;96.40;;;;;;5096345;28;20048;-84
2023/05/19 09:49:24;;;;;;;5.32;1.35;;;18.20;97.10;;;;;;5096055;28;20068;-84
2023/05/19 09:52:02;;;;;;;5.55;1.17;;;18.50;95.70;;;;;;5096042;28;20131;-84
2023/05/19 09:54:30;;;;;;;4.55;1.10;;;18.30;95.20;;;;;;5096080;28;20048;-86
2023/05/19 09:57:01;;;;;;;6.40;0.95;;;18.00;96.00;;;;;;5096114;28;20044;-85
2023/05/19 09:59:27;;;;;;;8.90;1.75;;;18.00;96.20;;;;;;5095988;28;20124;-84
2023/05/19 10:01:55;;;;;;;7.10;1.10;;;18.00;96.00;;;;;;5095897;28;20036;-84
2023/05/19 10:04:25;;;;;;;2.60;1.00;;;18.00;96.80;;;;;;5095940;28;20051;-85
2023/05/19 10:06:52;;;;;;;6.32;1.70;;;18.20;97.40;;;;;;5077378;28;20047;-85
2023/05/19 10:09:25;;;;;;;3.40;1.15;;;18.10;97.40;;;;;;5095735;28;20476;-84
2023/05/19 10:11:52;;;;;;;4.60;1.10;;;18.30;97.20;;;;;;5095903;28;20067;-84
2023/05/19 10:14:25;;;;;;;3.85;0.90;;;18.30;95.80;;;;;;5095705;28;20036;-84
2023/05/19 10:16:53;;;;;;;5.90;1.30;;;18.20;96.60;;;;;;5081033;28;20044;-85
2023/05/19 10:19:23;;;;;;;3.83;0.95;;;18.40;96.10;;;;;;5075207;28;20488;-84
2023/05/19 10:21:50;;;;;;;2.78;1.20;;;18.40;95.90;;;;;;5076108;28;20400;-84
2023/05/19 10:24:17;;;;;;;4.97;1.50;;;18.50;95.00;;;;;;5057076;28;20096;-84
2023/05/19 10:27:00;;;;;;;3.83;1.05;;;18.70;95.80;;;;;;5075227;28;20395;-84
2023/05/19 10:29:28;;;;;;;2.58;1.00;;;18.80;94.70;;;;;;5075265;28;20127;-84
2023/05/19 10:31:57;;;;;;;3.10;1.17;;;19.10;96.60;;;;;;5074967;28;20055;-85
2023/05/19 10:34:26;;;;;;;4.97;1.20;;;18.90;93.50;;;;;;5057944;28;20153;-84
2023/05/19 10:37:08;;;;;;;3.45;1.00;;;18.80;94.90;;;;;;5074916;28;20040;-84
2023/05/19 10:39:35;;;;;;;5.55;1.50;;;19.00;96.20;;;;;;5073746;28;20060;-86
2023/05/19 10:42:18;;;;;;;4.90;1.00;;;19.10;94.10;;;;;;5057013;28;20138;-83
2023/05/19 10:45:01;;;;;;;4.25;1.25;;;19.20;94.70;;;;;;5057938;28;20083;-84
2023/05/19 10:47:28;;;;;;;4.63;1.13;;;19.40;94.00;;;;;;5075256;28;20033;-84
2023/05/19 10:49:54;;;;;;;7.90;1.30;;;19.50;94.20;;;;;;5075515;28;20040;-85
2023/05/19 10:52:28;;;;;;;3.55;0.93;;;19.40;94.00;;;;;;5089591;28;20059;-82
2023/05/19 10:54:54;;;;;;;6.28;1.30;;;19.40;94.60;;;;;;5076213;28;20101;-84
2023/05/19 10:57:31;;;;;;;4.15;1.33;;;19.30;95.20;;;;;;5074361;28;20040;-83
2023/05/19 11:00:08;;;;;;;3.80;1.10;;;19.30;93.40;;;;;;5074665;28;20131;-85
2023/05/19 11:02:43;;;;;;;5.97;1.13;;;19.20;92.80;;;;;;5074867;28;20048;-83
2023/05/19 11:05:15;;;;;;;4.05;0.90;;;19.10;94.00;;;;;;5086219;28;20369;-85
2023/05/19 11:07:43;;;;;;;7.20;1.38;;;18.90;94.70;;;;;;5074205;28;20462;-85
2023/05/19 11:10:09;;;;;;;4.28;1.35;;;18.90;94.00;;;;;;5074150;28;20511;-85
2023/05/19 11:12:44;;;;;;;5.47;1.08;;;18.90;93.40;;;;;;5056661;28;20068;-85
2023/05/19 11:15:14;;;;;;;3.35;0.93;;;19.10;95.00;;;;;;5074549;28;20070;-84
2023/05/19 11:17:43;;;;;;;4.07;0.90;;;19.40;93.00;;;;;;5074265;28;20048;-85
2023/05/19 11:20:23;;;;;;;4.28;1.10;;;19.60;92.50;;;;;;5074267;28;20186;-87
2023/05/19 11:23:08;;;;;;;4.13;1.33;;;19.70;92.10;;;;;;5093924;28;20122;-86
2023/05/19 11:25:47;;;;;;;5.47;0.95;;;19.70;91.00;;;;;;5059400;28;20480;-84
2023/05/19 11:28:24;;;;;;;4.32;1.00;;;19.60;92.20;;;;;;5073731;28;20036;-85
2023/05/19 11:30:52;;;;;;;3.70;1.10;;;19.50;90.60;;;;;;5094331;28;20127;-85
2023/05/19 11:33:20;;;;;;;5.70;1.45;;;19.40;93.10;;;;;;5093425;28;20130;-87
2023/05/19 11:35:48;;;;;;;2.42;0.80;;;19.90;91.50;;;;;;5076289;28;20044;-86
2023/05/19 11:38:15;;;;;;;7.28;1.10;;;19.50;92.00;;;;;;5091656;28;20185;-86
2023/05/19 11:40:42;;;;;;;4.97;1.00;;;20.00;91.30;;;;;;5093552;28;20059;-85
2023/05/19 11:43:08;;;;;;;6.40;1.10;;;19.80;90.90;;;;;;5093981;28;20078;-85
2023/05/19 11:45:34;;;;;;;3.92;0.80;;;19.70;90.10;;;;;;5075961;28;20435;-84
2023/05/19 11:48:00;;;;;;;4.78;0.90;;;20.10;90.20;;;;;;5064593;28;20044;-85
2023/05/19 11:50:26;;;;;;;3.78;0.80;;;20.40;91.70;;;;;;5056277;28;20037;-86
2023/05/19 11:52:52;;;;;;;2.72;0.70;;;20.50;90.80;;;;;;5073641;28;20049;-84
2023/05/19 11:55:21;;;;;;;46.65;5.95;;;20.40;86.90;;;;;;5073450;28;20048;-84
2023/05/19 11:58:01;;;;;;;3.28;0.98;;;20.70;88.10;;;;;;5073234;28;20086;-85
2023/05/19 12:00:28;;;;;;;3.05;0.80;;;21.00;90.30;;;;;;5073884;28;20044;-84
2023/05/19 12:02:54;;;;;;;7.32;1.50;;;20.40;84.00;;;;;;5075553;28;20054;-84
2023/05/19 12:05:21;;;;;;;7.65;0.95;;;21.00;90.80;;;;;;5075020;28;20406;-85
2023/05/19 12:07:50;;;;;;;3.00;0.80;;;21.30;87.90;;;;;;5073087;28;20049;-85
2023/05/19 12:10:27;;;;;;;2.28;0.70;;;21.30;87.90;;;;;;5065276;28;20070;-84
2023/05/19 12:12:54;;;;;;;2.72;1.08;;;21.30;86.10;;;;;;5075113;28;20556;-86
2023/05/19 12:15:24;;;;;;;2.42;0.70;;;21.40;84.40;;;;;;5090770;28;20635;-85
2023/05/19 12:17:58;;;;;;;3.83;1.10;;;21.40;86.50;;;;;;5073075;28;20048;-85
2023/05/19 12:20:25;;;;;;;4.28;0.95;;;20.90;84.50;;;;;;5062666;28;20044;-84
2023/05/19 12:22:51;;;;;;;2.47;0.98;;;21.30;89.80;;;;;;5091777;28;20462;-83
2023/05/19 12:25:17;;;;;;;11.45;1.25;;;21.50;87.10;;;;;;5084161;28;20041;-83
2023/05/19 12:27:43;;;;;;;5.05;1.10;;;21.70;88.30;;;;;;5073001;28;20438;-84
2023/05/19 12:30:11;;;;;;;5.03;1.10;;;21.40;86.80;;;;;;5055326;28;20400;-83
2023/05/19 12:32:37;;;;;;;2.70;0.90;;;21.00;85.80;;;;;;5090148;28;20071;-84
2023/05/19 12:35:05;;;;;;;3.00;0.93;;;21.30;86.80;;;;;;5075305;28;20059;-84
2023/05/19 12:37:32;;;;;;;3.10;0.88;;;21.50;88.00;;;;;;5092003;28;20480;-82
2023/05/19 12:39:58;;;;;;;3.80;0.70;;;21.80;88.90;;;;;;5092697;28;20070;-82
2023/05/19 12:42:29;;;;;;;4.40;0.80;;;22.20;87.80;;;;;;5092749;28;20492;-83
2023/05/19 12:45:01;;;;;;;4.18;0.80;;;22.20;86.00;;;;;;5093201;28;20044;-83
2023/05/19 12:47:34;;;;;;;5.68;1.10;;;22.00;82.50;;;;;;5093150;28;20044;-83
2023/05/19 12:50:03;;;;;;;4.75;1.40;;;21.70;83.80;;;;;;5071274;28;20036;-83
2023/05/19 12:52:30;;;;;;;5.18;1.08;;;21.50;88.00;;;;;;5088207;28;20047;-84
2023/05/19 12:55:00;;;;;;;11.73;1.92;;;21.20;89.90;;;;;;5074655;28;20491;-84